Time;durP1;ratioP1;P1;durP2;ratioP2;P2;SDS_P1;SDS_P2;PMS_P1;PMS_P2;Temp;Humidity;BMP_temperature;BMP_pressure;BME280_temperature;BME280_humidity;BME280_pressure;Samples;Min_cycle;Max_cycle;Signal;HPM_P1;HPM_P2
2021/10/30 00:00:32;;;;;;;20.40;14.57;;;13.80;99.90;;;14.05;90.56;100365.84;5053303;28;20091;-72
2021/10/30 00:03:00;;;;;;;18.25;14.55;;;13.90;99.90;;;14.21;89.97;100352.06;5069125;28;20049;-72
2021/10/30 00:05:31;;;;;;;20.05;15.35;;;14.00;99.90;;;14.19;89.52;100331.75;5053320;28;20120;-72
2021/10/30 00:07:59;;;;;;;22.88;15.20;;;14.20;99.90;;;14.46;88.99;100366.47;5053454;28;20095;-72
2021/10/30 00:10:29;;;;;;;19.50;14.95;;;14.20;99.90;;;14.57;88.54;100365.31;5053023;28;20037;-72
2021/10/30 00:12:57;;;;;;;19.45;14.50;;;14.30;99.90;;;14.53;87.82;100337.03;5053507;28;20106;-72
2021/10/30 00:15:26;;;;;;;17.55;13.65;;;14.40;99.90;;;14.70;87.35;100351.59;5053441;28;20041;-72
2021/10/30 00:17:56;;;;;;;19.25;14.10;;;14.50;99.90;;;14.67;86.74;100321.53;5053148;28;20036;-73
2021/10/30 00:20:25;;;;;;;20.30;15.93;;;14.60;99.90;;;14.63;85.94;100319.88;5052997;28;20045;-72
2021/10/30 00:22:54;;;;;;;20.63;14.18;;;14.60;99.90;;;14.82;86.19;100351.22;5053313;28;20449;-72
2021/10/30 00:25:23;;;;;;;17.98;15.07;;;14.60;99.90;;;14.61;86.03;100333.25;5033366;28;20041;-72
2021/10/30 00:27:52;;;;;;;19.95;14.77;;;14.60;99.90;;;14.76;85.91;100359.41;5033205;28;20457;-72
2021/10/30 00:30:21;;;;;;;18.70;15.23;;;14.60;99.90;;;14.65;85.57;100350.88;5033360;28;20048;-72
2021/10/30 00:32:49;;;;;;;19.05;15.20;;;14.60;99.90;;;14.85;85.38;100359.13;5032127;28;20045;-72
2021/10/30 00:35:18;;;;;;;20.52;16.00;;;14.60;99.90;;;14.83;85.03;100366.28;5033033;28;20084;-73
2021/10/30 00:37:46;;;;;;;19.00;14.38;;;14.60;99.90;;;14.80;84.77;100369.03;5033048;28;20116;-72
2021/10/30 00:40:18;;;;;;;25.48;14.43;;;14.60;99.90;;;14.63;84.77;100311.88;5033036;28;20502;-72
2021/10/30 00:42:46;;;;;;;16.80;13.63;;;14.60;99.90;;;14.79;85.05;100323.84;5033557;28;20053;-72
2021/10/30 00:45:15;;;;;;;17.92;14.48;;;14.70;99.90;;;14.98;84.49;100341.84;5048498;28;20071;-72
2021/10/30 00:47:43;;;;;;;16.95;13.70;;;14.80;99.90;;;15.05;84.92;100347.84;5033234;28;20053;-72
2021/10/30 00:50:12;;;;;;;15.48;12.98;;;14.80;99.90;;;14.55;84.47;100279.31;5033175;28;20132;-72
2021/10/30 00:52:42;;;;;;;19.38;13.50;;;14.80;99.90;;;14.98;83.97;100307.22;5032770;28;20041;-72
2021/10/30 00:55:12;;;;;;;15.32;12.15;;;14.90;99.90;;;15.16;83.54;100306.63;5032933;28;20047;-72
2021/10/30 00:57:43;;;;;;;15.18;12.32;;;15.00;99.90;;;15.25;83.71;100321.47;5032805;28;20072;-72
2021/10/30 01:00:12;;;;;;;18.52;12.40;;;15.00;99.90;;;15.13;83.05;100298.75;5033099;28;20068;-72
2021/10/30 01:02:41;;;;;;;14.45;12.00;;;15.10;99.90;;;15.14;83.52;100327.13;5031791;28;20479;-72
2021/10/30 01:05:10;;;;;;;17.02;11.40;;;15.00;99.90;;;15.08;83.82;100337.09;5032753;28;20041;-72
2021/10/30 01:07:39;;;;;;;15.18;12.57;;;14.90;99.90;;;15.06;83.62;100315.84;5031776;28;20450;-72
2021/10/30 01:10:08;;;;;;;15.98;12.63;;;14.90;99.90;;;15.09;84.02;100317.53;5048164;28;20085;-72
2021/10/30 01:12:37;;;;;;;16.67;13.32;;;14.90;99.90;;;14.87;84.68;100319.13;5032934;28;20045;-72
2021/10/30 01:15:08;;;;;;;15.40;13.07;;;14.70;99.90;;;14.71;85.37;100307.22;5032664;28;20045;-72
2021/10/30 01:17:37;;;;;;;19.10;13.35;;;14.60;99.90;;;14.86;85.09;100307.63;5031684;28;20053;-72
2021/10/30 01:20:08;;;;;;;18.25;14.50;;;14.70;99.90;;;12.58;85.03;99925.41;5032787;28;20121;-72
2021/10/30 01:22:37;;;;;;;18.90;14.02;;;14.70;99.90;;;14.69;86.00;100325.03;5032107;28;20096;-72
2021/10/30 01:25:06;;;;;;;18.27;13.55;;;14.60;99.90;;;14.51;86.96;100315.78;5054866;28;20049;-72
2021/10/30 01:27:34;;;;;;;17.25;14.40;;;14.40;99.90;;;14.52;87.23;100301.53;5056793;28;20045;-72
2021/10/30 01:30:03;;;;;;;22.33;14.68;;;14.30;99.90;;;14.36;88.23;100310.91;5056522;28;20045;-72
2021/10/30 01:32:31;;;;;;;20.65;14.63;;;14.20;99.90;;;13.99;89.65;100295.09;5056173;28;20127;-72
2021/10/30 01:35:00;;;;;;;18.95;14.70;;;13.90;99.90;;;14.07;89.99;100313.50;5056104;28;20041;-72
2021/10/30 01:37:30;;;;;;;16.95;14.63;;;13.90;99.90;;;13.95;90.38;100288.09;5056318;28;20073;-72
2021/10/30 01:39:59;;;;;;;16.50;13.63;;;13.90;99.90;;;13.99;90.25;100310.16;5056086;28;20037;-72
2021/10/30 01:42:27;;;;;;;16.52;13.57;;;13.90;99.90;;;14.02;90.55;100310.06;5056149;28;20067;-72
2021/10/30 01:44:56;;;;;;;16.52;13.70;;;13.90;99.90;;;14.04;90.49;100308.22;5054988;28;20064;-72
2021/10/30 01:47:25;;;;;;;18.52;13.65;;;13.90;99.90;;;13.91;91.13;100307.72;5054909;28;20037;-72
2021/10/30 01:49:53;;;;;;;14.68;12.45;;;13.80;99.90;;;13.95;91.45;100305.84;5055842;28;20041;-72
2021/10/30 01:52:24;;;;;;;17.00;13.23;;;13.70;99.90;;;13.68;91.31;100261.38;5056092;28;20037;-72
2021/10/30 01:54:53;;;;;;;14.40;11.57;;;13.70;99.90;;;13.75;91.67;100292.19;5056080;28;20037;-71
2021/10/30 01:57:22;;;;;;;18.23;12.23;;;13.60;99.90;;;13.65;92.00;100272.09;5055696;28;20045;-71
2021/10/30 01:59:50;;;;;;;14.27;12.52;;;13.60;99.90;;;13.64;92.32;100254.41;5055838;28;20041;-72
2021/10/30 02:02:19;;;;;;;17.42;12.70;;;13.60;99.90;;;13.62;92.56;100277.50;5054633;28;20037;-72
2021/10/30 02:04:47;;;;;;;14.73;12.75;;;13.50;99.90;;;13.62;92.57;100264.19;5055729;28;20132;-72
2021/10/30 02:07:16;;;;;;;16.35;13.75;;;13.40;99.90;;;13.63;93.07;100266.81;5055795;28;20090;-72
2021/10/30 02:09:45;;;;;;;16.95;13.77;;;13.40;99.90;;;13.67;92.97;100249.88;5055884;28;20083;-71
2021/10/30 02:12:16;;;;;;;17.70;13.55;;;13.40;99.90;;;13.68;92.67;100250.75;5055432;28;20070;-72
2021/10/30 02:14:44;;;;;;;18.25;13.93;;;13.40;99.90;;;13.65;92.46;100248.16;5054477;28;20095;-72
2021/10/30 02:17:13;;;;;;;18.60;13.68;;;13.40;99.90;;;13.64;92.01;100247.31;5054363;28;20049;-71
2021/10/30 02:19:41;;;;;;;17.20;15.32;;;13.40;99.90;;;13.43;92.61;100230.13;5055521;28;20402;-72
2021/10/30 02:22:10;;;;;;;17.45;14.75;;;13.30;99.90;;;13.52;92.69;100229.03;5055131;28;20502;-73
2021/10/30 02:24:38;;;;;;;16.38;14.68;;;13.30;99.90;;;13.53;92.24;100215.69;5053809;28;20091;-72
2021/10/30 02:27:07;;;;;;;18.05;14.98;;;13.30;99.90;;;13.35;93.11;100215.31;5055153;28;20129;-72
2021/10/30 02:29:37;;;;;;;18.15;15.48;;;13.20;99.90;;;13.37;93.05;100211.72;5054202;28;20045;-71
2021/10/30 02:32:07;;;;;;;18.02;15.25;;;13.10;99.90;;;12.55;93.94;100089.94;5055382;28;20045;-71
2021/10/30 02:34:36;;;;;;;18.80;14.98;;;13.00;99.90;;;13.22;94.30;100193.50;5054880;28;20044;-72
2021/10/30 02:37:05;;;;;;;17.88;14.50;;;13.10;99.90;;;13.27;94.46;100196.06;5054966;28;20545;-71
2021/10/30 02:39:34;;;;;;;18.73;16.40;;;13.00;99.90;;;13.24;94.99;100198.81;5053819;28;20166;-71
2021/10/30 02:42:03;;;;;;;21.75;16.08;;;13.00;99.90;;;13.27;95.19;100186.31;5054763;28;20037;-72
2021/10/30 02:44:31;;;;;;;17.60;14.18;;;13.10;99.90;;;13.27;95.56;100190.75;5054778;28;20041;-72
2021/10/30 02:47:06;;;;;;;19.02;15.15;;;13.10;99.90;;;13.31;95.47;100200.38;5055107;28;20112;-71
2021/10/30 02:49:34;;;;;;;20.08;14.98;;;13.10;99.90;;;13.21;95.88;100182.94;5054786;28;20056;-72
2021/10/30 02:52:04;;;;;;;18.23;15.02;;;13.00;99.90;;;13.15;96.17;100177.78;5054640;28;20041;-72
2021/10/30 02:54:35;;;;;;;17.75;15.10;;;13.00;99.90;;;13.19;95.89;100168.81;5053653;28;20053;-72
2021/10/30 02:57:04;;;;;;;17.73;15.15;;;13.10;99.90;;;12.50;96.77;100036.16;5054938;28;20041;-71
2021/10/30 02:59:32;;;;;;;18.13;14.98;;;12.90;99.90;;;13.18;97.23;100138.72;5054538;28;20092;-71
2021/10/30 03:02:02;;;;;;;16.85;14.35;;;13.00;99.90;;;13.29;96.88;100136.69;5054648;28;20045;-71
2021/10/30 03:04:34;;;;;;;16.15;14.07;;;13.00;99.90;;;13.43;96.47;100139.81;5053782;28;20049;-71
2021/10/30 03:07:03;;;;;;;18.23;14.33;;;13.10;99.90;;;13.14;97.21;100147.69;5054983;28;20048;-72
2021/10/30 03:09:31;;;;;;;17.23;15.23;;;13.00;99.90;;;13.16;97.46;100129.94;5054597;28;20048;-71
2021/10/30 03:12:00;;;;;;;22.75;15.25;;;12.90;99.90;;;13.08;97.77;100139.91;5054278;28;20051;-71
2021/10/30 03:14:28;;;;;;;17.02;15.15;;;12.90;99.90;;;13.21;97.84;100137.78;5053213;28;20128;-72
2021/10/30 03:16:57;;;;;;;16.90;14.85;;;13.00;99.90;;;13.18;97.69;100119.31;5054188;28;20091;-72
2021/10/30 03:19:26;;;;;;;18.30;15.15;;;13.00;99.90;;;13.21;97.84;100127.16;5054351;28;20049;-72
2021/10/30 03:21:56;;;;;;;18.75;14.75;;;13.00;99.90;;;13.16;97.94;100124.63;5054281;28;20128;-72
2021/10/30 03:24:25;;;;;;;18.57;15.40;;;12.90;99.90;;;13.08;98.46;100107.19;5069666;28;20449;-72
2021/10/30 03:26:55;;;;;;;21.10;14.38;;;12.80;99.90;;;13.15;98.99;100100.78;5054305;28;20103;-72
2021/10/30 03:29:23;;;;;;;18.17;14.93;;;12.90;99.90;;;13.27;98.20;100116.38;5054115;28;20045;-72
2021/10/30 03:31:52;;;;;;;18.40;15.90;;;13.00;99.90;;;13.14;98.52;100110.53;5053951;28;20064;-72
2021/10/30 03:34:21;;;;;;;16.60;14.85;;;12.90;99.90;;;13.19;99.09;100108.63;5053905;28;20060;-72
2021/10/30 03:36:49;;;;;;;17.50;15.60;;;12.90;99.90;;;13.14;99.31;100099.91;5053851;28;20064;-71
2021/10/30 03:39:19;;;;;;;21.00;15.98;;;12.90;99.90;;;13.16;98.80;100090.09;5054044;28;20072;-72
2021/10/30 03:41:50;;;;;;;17.17;15.32;;;13.00;99.90;;;13.06;99.50;100106.34;5053718;28;20539;-71
2021/10/30 03:44:19;;;;;;;18.52;16.55;;;12.80;99.90;;;13.17;99.24;100083.03;5052678;28;20078;-71
2021/10/30 03:46:47;;;;;;;18.88;15.70;;;13.00;99.90;;;13.04;99.42;100077.19;5053141;28;20041;-71
2021/10/30 03:49:16;;;;;;;18.98;16.17;;;12.90;99.90;;;13.23;99.37;100098.78;5069308;28;20558;-72
2021/10/30 03:51:44;;;;;;;21.10;16.13;;;13.00;99.90;;;13.16;99.66;100082.13;5053519;28;20045;-71
2021/10/30 03:54:13;;;;;;;19.38;15.80;;;13.00;99.90;;;13.12;99.87;100080.50;5053450;28;20072;-71
2021/10/30 03:56:43;;;;;;;21.08;15.95;;;12.90;99.90;;;12.99;100.00;100054.31;5053752;28;20048;-72
2021/10/30 03:59:12;;;;;;;22.30;15.53;;;12.90;99.90;;;13.14;100.00;100067.19;5053395;28;20071;-72
2021/10/30 04:01:40;;;;;;;20.23;15.80;;;12.90;99.90;;;13.03;100.00;100075.44;5053347;28;20287;-71
2021/10/30 04:04:09;;;;;;;21.40;16.92;;;12.80;99.90;;;13.23;100.00;100065.16;5052353;28;20048;-71
2021/10/30 04:06:38;;;;;;;20.38;16.38;;;12.90;99.90;;;13.24;100.00;100064.22;5053413;28;20065;-72
2021/10/30 04:09:06;;;;;;;19.95;15.40;;;13.00;99.90;;;13.34;100.00;100076.31;5053269;28;20049;-71
2021/10/30 04:11:35;;;;;;;22.90;16.65;;;13.10;99.90;;;13.14;100.00;100052.09;5053452;28;20106;-71
2021/10/30 04:14:05;;;;;;;18.77;15.48;;;13.00;99.90;;;13.23;100.00;100070.47;5052223;28;20099;-72
2021/10/30 04:16:34;;;;;;;21.13;15.88;;;13.00;99.90;;;13.14;100.00;100045.94;5053255;28;20048;-72
2021/10/30 04:19:04;;;;;;;18.83;15.40;;;13.00;99.90;;;13.31;100.00;100064.94;5052284;28;20482;-72
2021/10/30 04:21:33;;;;;;;16.92;14.52;;;13.10;99.90;;;13.09;100.00;100048.72;5053137;28;20041;-72
2021/10/30 04:24:03;;;;;;;19.92;15.05;;;13.00;99.90;;;12.90;100.00;100006.75;5053045;28;20076;-72
2021/10/30 04:26:32;;;;;;;20.02;16.30;;;12.90;99.90;;;13.19;100.00;100055.53;5068498;28;20063;-72
2021/10/30 04:29:01;;;;;;;17.92;15.13;;;13.00;99.90;;;13.03;100.00;100029.38;5051950;28;20576;-71
2021/10/30 04:31:32;;;;;;;16.35;14.25;;;12.90;99.90;;;13.28;100.00;100044.63;5052944;28;20494;-72
2021/10/30 04:34:02;;;;;;;22.33;16.73;;;13.00;99.90;;;13.20;100.00;100030.69;5052032;28;20053;-72
2021/10/30 04:36:35;;;;;;;19.00;14.55;;;13.00;99.90;;;13.12;100.00;100030.06;5053006;28;20068;-71
2021/10/30 04:39:05;;;;;;;20.73;15.57;;;12.90;99.90;;;12.41;100.00;99976.25;5051969;28;20045;-72
2021/10/30 04:41:35;;;;;;;16.53;14.77;;;12.90;99.90;;;13.21;100.00;100031.56;5053079;28;20040;-72
2021/10/30 04:44:03;;;;;;;19.17;15.02;;;13.00;99.90;;;13.15;100.00;100022.00;5052879;28;20041;-73
2021/10/30 04:46:34;;;;;;;20.33;15.88;;;13.00;99.90;;;13.04;100.00;100007.28;5052829;28;20450;-72
2021/10/30 04:49:08;;;;;;;17.85;15.00;;;12.90;99.90;;;13.16;100.00;100002.47;5053146;28;20045;-73
2021/10/30 04:51:37;;;;;;;20.80;15.25;;;12.90;99.90;;;13.09;100.00;99997.41;5053092;28;20041;-73
2021/10/30 04:54:05;;;;;;;17.98;15.60;;;12.90;99.90;;;13.12;100.00;99995.56;5052851;28;20048;-73
2021/10/30 04:56:34;;;;;;;16.98;15.18;;;12.90;99.90;;;13.04;100.00;100001.97;5053605;28;20045;-72
2021/10/30 04:59:02;;;;;;;20.67;15.27;;;12.80;99.90;;;13.01;100.00;100000.25;5057084;28;20051;-73
2021/10/30 05:01:30;;;;;;;22.38;16.98;;;12.80;99.90;;;13.15;100.00;99994.56;5057031;28;20060;-72
2021/10/30 05:04:00;;;;;;;20.63;16.80;;;12.90;99.90;;;13.06;100.00;100009.00;5056629;28;20403;-73
2021/10/30 05:06:29;;;;;;;20.87;16.77;;;12.80;99.90;;;13.08;100.00;99982.41;5057019;28;20079;-72
2021/10/30 05:08:57;;;;;;;17.88;16.00;;;12.90;99.90;;;12.94;100.00;99964.19;5056689;28;20345;-72
2021/10/30 05:11:26;;;;;;;22.45;17.48;;;12.90;99.90;;;13.09;100.00;99992.97;5057087;28;20072;-72
2021/10/30 05:13:54;;;;;;;20.77;18.00;;;12.90;99.90;;;13.15;100.00;99976.84;5056571;28;20045;-72
2021/10/30 05:16:23;;;;;;;19.77;17.17;;;12.90;99.90;;;13.26;100.00;99982.72;5056747;28;20057;-72
2021/10/30 05:18:51;;;;;;;21.80;16.55;;;13.00;99.90;;;13.21;100.00;99973.16;5056534;28;20056;-72
2021/10/30 05:21:21;;;;;;;21.15;16.75;;;13.00;99.90;;;13.32;100.00;99968.38;5057086;28;20045;-72
2021/10/30 05:23:50;;;;;;;23.08;16.33;;;13.00;99.90;;;13.37;100.00;99977.97;5056216;28;20048;-72
2021/10/30 05:26:18;;;;;;;22.08;16.25;;;13.10;99.90;;;13.19;100.00;99962.59;5055290;28;20053;-71
2021/10/30 05:28:47;;;;;;;20.00;16.92;;;13.10;99.90;;;13.15;100.00;99947.66;5056562;28;20119;-71
2021/10/30 05:31:15;;;;;;;17.88;15.70;;;13.00;99.90;;;13.24;100.00;99958.00;5056486;28;20045;-72
2021/10/30 05:33:44;;;;;;;19.35;16.08;;;13.00;99.90;;;12.93;100.00;99927.91;5056799;28;20036;-72
2021/10/30 05:36:35;;;;;;;18.88;15.68;;;12.90;99.90;;;13.25;100.00;99946.47;5056405;28;20512;-72
2021/10/30 05:39:16;;;;;;;22.30;16.45;;;13.00;99.90;;;13.31;100.00;99956.03;5054848;28;20447;-71
2021/10/30 05:41:45;;;;;;;17.20;15.43;;;13.10;99.90;;;13.21;100.00;99943.94;5054972;28;20052;-72
2021/10/30 05:44:14;;;;;;;20.75;16.45;;;13.00;99.90;;;13.19;100.00;99928.06;5055877;28;20119;-72
2021/10/30 05:46:43;;;;;;;19.70;15.20;;;13.00;99.90;;;13.04;100.00;99901.09;5056463;28;20052;-71
2021/10/30 05:49:12;;;;;;;18.15;14.52;;;13.00;99.90;;;13.12;100.00;99910.59;5056458;28;20041;-72
2021/10/30 05:51:42;;;;;;;18.58;14.82;;;13.10;99.90;;;12.01;100.00;99720.22;5056114;28;20048;-71
2021/10/30 05:54:11;;;;;;;19.67;14.73;;;13.00;99.90;;;13.07;100.00;99923.13;5056234;28;20045;-72
2021/10/30 05:56:39;;;;;;;21.10;15.32;;;13.00;99.90;;;13.06;100.00;99896.63;5056282;28;20072;-72
2021/10/30 05:59:08;;;;;;;18.10;14.18;;;13.00;99.90;;;13.27;100.00;99926.06;5055649;28;20124;-71
2021/10/30 06:01:37;;;;;;;17.88;14.77;;;13.00;99.90;;;13.18;100.00;99923.66;5054723;28;20472;-71
2021/10/30 06:04:05;;;;;;;19.75;15.75;;;13.00;99.90;;;13.25;100.00;99930.53;5055811;28;20041;-73
2021/10/30 06:06:34;;;;;;;17.30;14.40;;;13.00;99.90;;;13.32;100.00;99933.84;5055584;28;20044;-71
2021/10/30 06:09:04;;;;;;;16.15;14.15;;;13.10;99.90;;;13.34;100.00;99938.22;5054449;28;20087;-72
2021/10/30 06:11:33;;;;;;;18.55;14.77;;;13.10;99.90;;;13.21;100.00;99949.25;5055493;28;20041;-71
2021/10/30 06:14:03;;;;;;;19.40;14.77;;;13.10;99.90;;;13.32;100.00;99933.84;5054447;28;20049;-72
2021/10/30 06:16:31;;;;;;;20.48;14.52;;;13.10;99.90;;;13.23;100.00;99918.22;5054456;28;20048;-73
2021/10/30 06:19:00;;;;;;;20.55;13.63;;;13.10;99.90;;;13.30;100.00;99947.19;5055347;28;20049;-71
2021/10/30 06:21:29;;;;;;;18.83;14.63;;;13.10;99.90;;;13.21;100.00;99922.69;5055333;28;20500;-72
2021/10/30 06:23:59;;;;;;;18.23;14.55;;;13.20;99.90;;;13.39;100.00;99933.63;5055444;28;20060;-72
2021/10/30 06:26:29;;;;;;;17.77;14.15;;;13.20;99.90;;;13.22;100.00;99906.72;5055505;28;20071;-72
2021/10/30 06:28:59;;;;;;;16.50;14.27;;;13.20;99.90;;;13.46;100.00;99942.28;5055240;28;20453;-72
2021/10/30 06:31:28;;;;;;;22.08;14.40;;;13.20;99.90;;;13.41;100.00;99920.31;5055312;28;20049;-72
2021/10/30 06:33:56;;;;;;;17.23;14.32;;;13.20;99.90;;;13.38;100.00;99923.06;5054091;28;20136;-71
2021/10/30 06:36:25;;;;;;;23.35;14.60;;;13.20;99.90;;;13.46;100.00;99916.59;5055098;28;20102;-72
2021/10/30 06:38:57;;;;;;;19.17;14.15;;;13.20;99.90;;;13.41;100.00;99931.78;5055272;28;20056;-71
2021/10/30 06:41:46;;;;;;;17.10;14.27;;;13.20;99.90;;;13.34;100.00;99906.34;5055293;28;20055;-72
2021/10/30 06:44:16;;;;;;;15.65;14.05;;;13.20;99.90;;;12.84;100.00;99807.91;5070727;28;20095;-72
2021/10/30 06:46:45;;;;;;;16.98;14.02;;;13.10;99.90;;;13.32;100.00;99878.97;5055110;28;20048;-71
2021/10/30 06:49:14;;;;;;;18.63;14.25;;;13.10;99.90;;;13.23;100.00;99886.34;5054700;28;20044;-71
2021/10/30 06:51:45;;;;;;;16.90;13.80;;;13.10;99.90;;;13.24;100.00;99888.09;5054763;28;20051;-70
2021/10/30 06:54:13;;;;;;;16.75;13.98;;;13.10;99.90;;;13.22;100.00;99888.13;5054884;28;20053;-71
2021/10/30 06:56:42;;;;;;;18.10;14.20;;;13.00;99.90;;;13.23;100.00;99876.59;5054872;28;20049;-70
2021/10/30 06:59:12;;;;;;;18.00;13.45;;;13.00;99.90;;;13.20;100.00;99871.38;5054447;28;20048;-71
2021/10/30 07:01:41;;;;;;;19.17;14.10;;;13.00;99.90;;;13.13;100.00;99875.16;5054815;28;20087;-72
2021/10/30 07:04:09;;;;;;;20.13;14.00;;;13.00;99.90;;;13.28;100.00;99890.59;5055132;28;20045;-71
2021/10/30 07:06:38;;;;;;;17.40;14.00;;;13.00;99.90;;;13.20;100.00;99855.44;5054815;28;20060;-71
2021/10/30 07:09:06;;;;;;;16.92;13.38;;;13.10;99.90;;;13.26;100.00;99867.66;5053563;28;20045;-71
2021/10/30 07:11:35;;;;;;;18.17;13.65;;;13.00;99.90;;;13.38;100.00;99880.56;5054404;28;20041;-71
2021/10/30 07:14:04;;;;;;;16.10;12.88;;;13.20;99.90;;;13.24;100.00;99851.78;5054483;28;20441;-71
2021/10/30 07:16:34;;;;;;;19.10;14.38;;;13.10;99.90;;;12.94;100.00;99802.28;5054278;28;20041;-71
2021/10/30 07:19:03;;;;;;;17.83;14.43;;;13.10;99.90;;;13.44;100.00;99857.34;5054198;28;20585;-71
2021/10/30 07:21:31;;;;;;;16.88;14.25;;;13.20;99.90;;;13.40;100.00;99858.34;5054087;28;20073;-72
2021/10/30 07:24:00;;;;;;;17.35;13.70;;;13.20;99.90;;;13.43;100.00;99860.88;5053987;28;20059;-71
2021/10/30 07:26:29;;;;;;;15.25;12.98;;;13.20;99.90;;;13.36;100.00;99851.38;5054036;28;20053;-71
2021/10/30 07:28:57;;;;;;;17.77;13.10;;;13.20;99.90;;;13.38;100.00;99867.28;5054075;28;20490;-72
2021/10/30 07:31:26;;;;;;;18.02;12.57;;;13.20;99.90;;;13.39;100.00;99864.56;5054473;28;20045;-71
2021/10/30 07:33:56;;;;;;;17.65;13.05;;;13.20;99.90;;;13.27;100.00;99840.19;5053948;28;20095;-71
2021/10/30 07:36:24;;;;;;;18.90;13.35;;;13.20;99.90;;;13.27;100.00;99829.56;5053960;28;20049;-71
2021/10/30 07:38:53;;;;;;;15.57;13.63;;;13.20;99.90;;;13.32;100.00;99873.66;5053950;28;20041;-71
2021/10/30 07:41:22;;;;;;;19.13;13.93;;;13.20;99.90;;;13.28;100.00;99853.41;5053772;28;20041;-71
2021/10/30 07:43:54;;;;;;;14.32;12.40;;;13.10;99.90;;;13.33;100.00;99862.13;5053632;28;20040;-71
2021/10/30 07:46:24;;;;;;;15.20;12.52;;;13.20;99.90;;;13.34;100.00;99845.25;5053715;28;20045;-71
2021/10/30 07:48:53;;;;;;;15.17;13.03;;;13.20;99.90;;;13.32;100.00;99852.41;5052687;28;20045;-71
2021/10/30 07:51:23;;;;;;;16.58;12.80;;;13.10;99.90;;;13.41;100.00;99843.28;5053660;28;20381;-71
2021/10/30 07:53:52;;;;;;;19.10;13.55;;;13.20;99.90;;;13.34;100.00;99831.97;5053480;28;20374;-71
2021/10/30 07:56:20;;;;;;;15.85;12.70;;;13.10;99.90;;;13.34;100.00;99834.63;5053394;28;20032;-70
2021/10/30 07:58:49;;;;;;;21.60;13.40;;;13.10;99.90;;;13.41;100.00;99848.59;5053603;28;20099;-72
2021/10/30 08:01:18;;;;;;;17.92;13.25;;;13.20;99.90;;;13.38;100.00;99844.25;5053554;28;20115;-71
2021/10/30 08:03:47;;;;;;;16.35;14.00;;;13.20;99.90;;;13.42;100.00;99829.94;5052365;28;20044;-71
2021/10/30 08:06:16;;;;;;;14.95;12.43;;;13.20;99.90;;;13.30;100.00;99835.66;5053314;28;20502;-71
2021/10/30 08:08:46;;;;;;;14.38;12.80;;;13.10;99.90;;;13.36;100.00;99851.38;5053657;28;20040;-72
2021/10/30 08:11:15;;;;;;;14.00;11.55;;;13.20;99.90;;;12.64;100.00;99716.53;5053630;28;20083;-71
2021/10/30 08:13:43;;;;;;;14.25;12.32;;;13.20;99.90;;;13.42;100.00;99847.66;5053214;28;20083;-68
2021/10/30 08:16:12;;;;;;;14.02;12.20;;;13.20;99.90;;;13.39;100.00;99859.25;5052128;28;20564;-73
2021/10/30 08:18:40;;;;;;;15.63;13.07;;;13.20;99.90;;;13.54;100.00;99844.63;5053458;28;20044;-72
2021/10/30 08:21:09;;;;;;;14.40;12.05;;;13.30;99.90;;;13.55;100.00;99852.53;5053107;28;20045;-70
2021/10/30 08:23:37;;;;;;;12.15;10.85;;;13.40;99.90;;;13.51;100.00;99852.69;5051602;28;20513;-70
2021/10/30 08:26:08;;;;;;;14.18;11.40;;;13.40;99.90;;;13.53;100.00;99846.41;5051992;28;20049;-70
2021/10/30 08:28:36;;;;;;;15.25;11.63;;;13.30;99.90;;;13.62;100.00;99844.34;5053125;28;20092;-71
2021/10/30 08:31:05;;;;;;;11.60;10.50;;;13.40;99.90;;;13.68;100.00;99821.13;5052571;28;20094;-72
2021/10/30 08:33:33;;;;;;;13.95;9.98;;;13.40;99.90;;;13.70;100.00;99842.31;5051875;28;20057;-69
2021/10/30 08:36:02;;;;;;;12.68;10.50;;;13.50;99.90;;;13.75;100.00;99848.34;5052884;28;20072;-72
2021/10/30 08:38:32;;;;;;;10.55;9.50;;;13.50;99.90;;;13.74;100.00;99825.34;5052951;28;20037;-72
2021/10/30 08:41:01;;;;;;;12.40;9.77;;;13.60;99.90;;;13.80;100.00;99826.00;5052800;28;20033;-71
2021/10/30 08:43:33;;;;;;;11.75;9.57;;;13.60;99.90;;;13.90;100.00;99866.44;5052912;28;20056;-69
2021/10/30 08:46:02;;;;;;;10.52;9.43;;;13.70;99.90;;;13.83;100.00;99817.06;5052811;28;20045;-68
2021/10/30 08:48:32;;;;;;;11.10;9.40;;;13.70;99.90;;;13.85;100.00;99847.13;5068659;28;20041;-69
2021/10/30 08:51:03;;;;;;;10.43;9.02;;;13.70;99.90;;;13.81;100.00;99837.50;5068277;28;20037;-69
2021/10/30 08:53:32;;;;;;;10.10;8.80;;;13.60;99.90;;;13.74;100.00;99839.53;5068638;28;20044;-70
2021/10/30 08:56:03;;;;;;;12.10;9.13;;;13.60;99.90;;;13.73;100.00;99823.59;5052747;28;20069;-69
2021/10/30 08:58:33;;;;;;;11.32;8.73;;;13.60;99.90;;;13.80;100.00;99841.09;5068492;28;20457;-69
2021/10/30 09:01:06;;;;;;;12.30;9.20;;;13.60;99.90;;;13.82;100.00;99831.28;5053081;28;20048;-72
2021/10/30 09:03:36;;;;;;;13.38;9.10;;;13.70;99.90;;;13.82;100.00;99818.00;5053065;28;20294;-69
2021/10/30 09:06:06;;;;;;;9.98;8.55;;;13.70;99.90;;;13.77;100.00;99820.78;5052815;28;20095;-68
2021/10/30 09:08:35;;;;;;;12.52;9.68;;;13.60;99.90;;;13.84;100.00;99856.03;5068476;28;20045;-73
2021/10/30 09:11:08;;;;;;;11.35;9.13;;;13.70;99.90;;;13.84;100.00;99816.16;5053135;28;20041;-69
2021/10/30 09:13:39;;;;;;;15.02;9.32;;;13.70;99.90;;;13.78;100.00;99857.06;5052790;28;20037;-72
2021/10/30 09:16:09;;;;;;;;;;;13.60;99.90;;;13.78;100.00;99803.06;5053322;28;20098;-72
2021/10/30 09:18:40;;;;;;;10.90;9.32;;;13.60;99.90;;;13.79;100.00;99813.63;5052747;28;19921;-71
2021/10/30 09:21:15;;;;;;;10.95;8.40;;;13.60;99.90;;;13.73;100.00;99808.53;5052611;28;20455;-73
2021/10/30 09:23:58;;;;;;;10.80;9.48;;;13.60;99.90;;;13.22;100.00;99720.00;5052647;28;20057;-71
2021/10/30 09:26:29;;;;;;;12.48;9.88;;;13.60;99.90;;;13.71;100.00;99812.16;5051620;28;20044;-72
2021/10/30 09:29:08;;;;;;;12.35;9.60;;;13.60;99.90;;;13.63;100.00;99791.16;5052544;28;20112;-73
2021/10/30 09:31:36;;;;;;;12.30;9.15;;;13.50;99.90;;;13.80;100.00;99806.53;5052777;28;20037;-71
2021/10/30 09:34:08;;;;;;;14.02;9.10;;;13.60;99.90;;;13.72;100.00;99805.94;5052649;28;20069;-69
2021/10/30 09:36:39;;;;;;;10.52;9.43;;;13.60;99.90;;;13.79;100.00;99807.44;5052738;28;20128;-73
2021/10/30 09:39:10;;;;;;;12.20;10.10;;;13.60;99.90;;;13.74;100.00;99823.56;5051366;28;20453;-70
2021/10/30 09:41:41;;;;;;;10.52;9.43;;;13.60;99.90;;;13.78;100.00;99793.28;5052427;28;20041;-74
2021/10/30 09:44:17;;;;;;;14.75;10.20;;;13.60;99.90;;;13.64;100.00;99771.66;5054107;28;20041;-71
2021/10/30 09:46:55;;;;;;;13.57;10.88;;;13.60;99.90;;;13.83;100.00;99799.31;5055891;28;20095;-70
2021/10/30 09:49:27;;;;;;;10.32;9.32;;;13.70;99.90;;;13.81;100.00;99808.25;5056062;28;20049;-72
2021/10/30 09:52:10;;;;;;;10.77;9.77;;;13.70;99.90;;;13.18;100.00;99697.97;5056249;28;20049;-73
2021/10/30 09:54:41;;;;;;;10.40;9.30;;;13.70;99.90;;;13.73;100.00;99779.31;5056131;28;20033;-70
2021/10/30 09:57:15;;;;;;;10.43;8.95;;;13.70;99.90;;;13.81;100.00;99792.31;5056186;28;20053;-70
2021/10/30 09:59:45;;;;;;;10.48;9.35;;;13.70;99.90;;;12.92;100.00;99666.09;5056343;28;20041;-70
2021/10/30 10:02:15;;;;;;;10.60;9.45;;;13.70;99.90;;;13.09;100.00;99663.78;5055706;28;20478;-70
2021/10/30 10:04:44;;;;;;;10.48;9.43;;;13.70;99.90;;;13.80;100.00;99819.84;5054590;28;20098;-71
2021/10/30 10:07:14;;;;;;;10.95;9.75;;;13.60;99.90;;;13.57;100.00;99743.53;5055661;28;20398;-71
2021/10/30 10:09:43;;;;;;;10.18;9.18;;;13.70;99.90;;;13.89;100.00;99801.78;5055538;28;20517;-71